Makah AFB, Washington
Current Conditions -  °F | °C
As of 12:53 PM on Tuesday 27 Jan 2015 (Local Time) from KUIL Reporting Station
Overcast Overcast  
Wind Chill: 50°   Ceiling: 2200
Heat Index: 50°   Visibility: 8mi
Dew Point: 46°   Wind: 7mph
Humidity: 86%   Direction: 320°NW
Pressure: 30.11"   Gusts: NA
Location:  48.3685°N, 124.623°W
Report Text: KUIL 272053Z AUTO 32006KT 8SM OVC022 10/08 A3011 RMK AO2 SLP197 T01000078 53006
Loading
Personal Weather Stations






























Interactive Weather Map New forecast layout! Learn more

10-Day Weather Forecast

Advertisements
Track Severe Weather on mobile